Time;durP1;ratioP1;P1;durP2;ratioP2;P2;SDS_P1;SDS_P2;PMS_P1;PMS_P2;Temp;Humidity;BMP_temperature;BMP_pressure;BME280_temperature;BME280_humidity;BME280_pressure;Samples;Min_cycle;Max_cycle;Signal;HPM_P1;HPM_P2
2022/01/20 00:00:40;;;;;;;6.90;6.00;;;9.10;59.30;;;;;;5002062;28;20441;-42
2022/01/20 00:03:13;;;;;;;6.43;4.87;;;8.90;59.30;;;;;;5009371;28;20503;-43
2022/01/20 00:06:19;;;;;;;5.50;3.80;;;8.90;59.80;;;;;;5011518;28;21053;-42
2022/01/20 00:27:19;;;;;;;4.13;3.73;;;9.20;59.90;;;;;;5008555;28;20575;-43
2022/01/20 00:37:26;;;;;;;7.00;5.23;;;9.60;59.20;;;;;;4999399;28;20657;-43
2022/01/20 00:39:53;;;;;;;7.07;4.43;;;9.60;59.20;;;;;;5010894;28;20202;-42
2022/01/20 00:42:19;;;;;;;6.57;4.77;;;9.70;59.20;;;;;;5010464;28;20479;-43
2022/01/20 00:44:45;;;;;;;5.90;5.00;;;9.70;59.10;;;;;;5010811;28;20433;-42
2022/01/20 00:47:12;;;;;;;5.07;4.57;;;9.70;58.90;;;;;;5005587;28;20543;-42
2022/01/20 00:49:38;;;;;;;6.93;5.30;;;9.70;58.90;;;;;;5010630;28;20471;-42
2022/01/20 00:52:05;;;;;;;6.50;5.30;;;9.70;59.00;;;;;;5010704;28;20443;-43
2022/01/20 00:54:31;;;;;;;5.83;5.23;;;9.70;59.00;;;;;;5008097;28;20447;-43
2022/01/20 00:56:58;;;;;;;5.50;4.90;;;9.80;58.90;;;;;;5008496;28;20447;-43
2022/01/20 00:59:24;;;;;;;5.37;4.00;;;9.80;59.00;;;;;;5005743;28;20452;-42
2022/01/20 01:01:50;;;;;;;5.20;3.73;;;9.80;59.20;;;;;;5008113;28;20443;-42
2022/01/20 01:04:15;;;;;;;4.57;3.60;;;9.70;59.20;;;;;;5010949;28;20551;-42
2022/01/20 01:06:58;;;;;;;4.80;3.83;;;9.70;59.20;;;;;;5009167;28;20500;-44
2022/01/20 01:09:24;;;;;;;4.03;3.60;;;9.80;59.20;;;;;;5008314;28;20198;-42
2022/01/20 01:11:52;;;;;;;4.00;3.33;;;9.80;59.20;;;;;;5009689;28;20841;-42
2022/01/20 01:14:21;;;;;;;3.70;3.40;;;9.80;59.10;;;;;;5010254;28;20245;-42
2022/01/20 01:24:36;;;;;;;4.17;3.70;;;9.70;59.20;;;;;;5006622;28;20459;-42
2022/01/20 01:27:02;;;;;;;4.23;3.83;;;9.80;58.90;;;;;;5008844;28;20496;-44
2022/01/20 01:29:53;;;;;;;3.77;3.07;;;9.80;59.00;;;;;;5010649;28;20972;-42
2022/01/20 01:32:19;;;;;;;3.50;3.20;;;9.80;58.90;;;;;;5009985;28;20827;-42
2022/01/20 01:34:51;;;;;;;4.80;3.30;;;9.80;58.70;;;;;;5005529;28;20480;-42
2022/01/20 01:39:59;;;;;;;3.83;3.27;;;9.90;58.50;;;;;;5009286;28;20805;-42
2022/01/20 01:42:32;;;;;;;5.73;3.57;;;9.90;58.50;;;;;;5008072;28;20445;-44
2022/01/20 01:45:06;;;;;;;4.73;3.40;;;9.90;58.60;;;;;;5009617;28;20503;-42
2022/01/20 01:47:32;;;;;;;5.20;3.50;;;9.90;58.70;;;;;;5010219;28;20578;-43
2022/01/20 01:49:57;;;;;;;4.23;3.20;;;9.90;58.80;;;;;;5010364;28;20886;-42
2022/01/20 01:52:23;;;;;;;3.73;3.40;;;10.00;58.00;;;;;;5006623;28;20202;-43
2022/01/20 01:54:48;;;;;;;5.80;3.10;;;9.90;59.00;;;;;;5005469;28;20547;-42
2022/01/20 01:57:14;;;;;;;4.00;3.60;;;9.90;59.00;;;;;;5008785;28;20203;-42
2022/01/20 01:59:39;;;;;;;3.07;2.77;;;9.90;59.20;;;;;;5010228;28;20653;-43
2022/01/20 02:02:05;;;;;;;3.90;3.53;;;9.90;59.10;;;;;;5007065;28;20202;-42
2022/01/20 02:04:33;;;;;;;3.70;3.10;;;9.90;59.20;;;;;;5007998;28;20200;-42
2022/01/20 02:20:12;;;;;;;3.27;2.97;;;9.90;59.60;;;;;;5008472;28;20448;-42
2022/01/20 02:22:38;;;;;;;2.87;2.67;;;9.80;59.50;;;;;;5007850;28;20485;-42
2022/01/20 02:25:04;;;;;;;4.47;3.90;;;9.80;59.40;;;;;;5006590;28;20452;-42
2022/01/20 02:27:29;;;;;;;3.30;2.93;;;9.90;59.30;;;;;;5006733;28;20621;-43
2022/01/20 02:29:55;;;;;;;3.10;2.20;;;9.70;58.90;;;;;;5009585;28;20440;-42
2022/01/20 02:32:20;;;;;;;2.70;2.40;;;9.80;59.30;;;;;;5009119;28;20186;-42
2022/01/20 02:34:46;;;;;;;2.70;2.33;;;9.70;59.40;;;;;;5008562;28;20577;-44
2022/01/20 02:37:14;;;;;;;4.80;2.30;;;9.70;59.60;;;;;;5006981;28;20201;-42
2022/01/20 02:44:51;;;;;;;4.60;2.00;;;9.60;59.80;;;;;;5008978;28;20441;-43
2022/01/20 02:45:01;;;;;;;2.77;2.20;;;9.40;60.20;;;;;;5007708;28;20194;-42
2022/01/20 02:47:29;;;;;;;2.50;1.83;;;9.20;60.90;;;;;;5008836;28;20492;-42
2022/01/20 02:49:55;;;;;;;2.40;2.10;;;9.30;61.00;;;;;;5004256;28;20512;-43
2022/01/20 02:52:23;;;;;;;3.00;1.93;;;9.30;60.90;;;;;;5008708;28;20488;-43
2022/01/20 02:54:50;;;;;;;2.20;2.00;;;9.40;60.70;;;;;;5007227;28;20444;-42
2022/01/20 02:57:16;;;;;;;2.20;1.97;;;9.50;60.50;;;;;;5008402;28;20441;-42
2022/01/20 02:59:42;;;;;;;2.30;2.00;;;9.30;60.60;;;;;;5006306;28;20507;-42
2022/01/20 03:02:09;;;;;;;2.40;2.20;;;9.20;61.40;;;;;;5009424;28;20433;-43
2022/01/20 03:04:36;;;;;;;2.80;2.10;;;9.20;61.40;;;;;;5006292;28;20206;-42
2022/01/20 03:07:02;;;;;;;2.40;1.80;;;9.30;61.20;;;;;;5012371;28;20511;-42
2022/01/20 03:09:28;;;;;;;2.50;1.70;;;9.40;61.10;;;;;;5011403;28;20483;-42
2022/01/20 03:11:54;;;;;;;2.83;1.80;;;9.40;60.90;;;;;;5010536;28;20460;-42
2022/01/20 03:14:19;;;;;;;1.87;1.77;;;9.40;60.80;;;;;;5012758;28;20590;-43
2022/01/20 03:16:45;;;;;;;1.87;1.60;;;9.60;60.60;;;;;;5011690;28;20194;-43
2022/01/20 03:19:12;;;;;;;2.50;2.30;;;9.60;60.40;;;;;;5013869;28;20198;-43
2022/01/20 03:21:39;;;;;;;2.10;1.90;;;9.60;60.50;;;;;;5010962;28;20437;-42
2022/01/20 03:24:05;;;;;;;2.20;2.00;;;9.60;60.40;;;;;;5006046;28;20437;-42
2022/01/20 03:26:31;;;;;;;2.20;2.00;;;9.70;60.50;;;;;;5004926;28;20619;-42
2022/01/20 03:28:57;;;;;;;2.10;1.90;;;9.60;60.60;;;;;;4996469;28;20529;-42
2022/01/20 03:31:24;;;;;;;2.33;2.03;;;9.70;60.80;;;;;;5010890;28;20209;-43
2022/01/20 03:33:49;;;;;;;3.10;2.23;;;9.80;60.60;;;;;;5012613;28;20978;-42
2022/01/20 03:36:15;;;;;;;2.80;1.80;;;9.80;60.30;;;;;;5011688;28;20433;-42
2022/01/20 03:38:41;;;;;;;1.73;1.63;;;9.80;60.20;;;;;;5012994;28;20202;-42
2022/01/20 03:41:06;;;;;;;1.80;1.70;;;9.90;60.10;;;;;;5006363;28;20247;-43
2022/01/20 03:43:32;;;;;;;2.70;1.90;;;9.90;60.10;;;;;;5010189;28;20239;-42
2022/01/20 03:46:00;;;;;;;1.83;1.73;;;10.00;59.10;;;;;;5011585;28;20210;-42
2022/01/20 03:48:27;;;;;;;1.87;1.77;;;10.00;59.30;;;;;;5013192;28;20194;-43
2022/01/20 03:50:59;;;;;;;2.43;2.23;;;10.00;59.10;;;;;;5012747;28;20441;-42
2022/01/20 03:53:25;;;;;;;2.87;1.80;;;10.00;59.00;;;;;;5009257;28;20527;-43
2022/01/20 03:55:51;;;;;;;2.97;2.67;;;10.00;59.20;;;;;;5012590;28;20866;-42
2022/01/20 03:58:17;;;;;;;2.50;1.97;;;10.00;59.40;;;;;;5010171;28;20205;-42
2022/01/20 04:00:43;;;;;;;2.10;2.00;;;9.70;60.80;;;;;;5012406;28;20964;-42
2022/01/20 04:03:13;;;;;;;2.47;2.27;;;9.60;61.60;;;;;;5011769;28;21039;-43
2022/01/20 04:05:52;;;;;;;3.70;2.07;;;9.50;62.40;;;;;;5007276;28;20441;-45
2022/01/20 04:08:18;;;;;;;2.97;2.10;;;9.60;62.30;;;;;;5010215;28;20440;-44
2022/01/20 04:10:44;;;;;;;2.47;2.27;;;9.60;62.10;;;;;;5012554;28;20440;-43
2022/01/20 04:13:10;;;;;;;2.23;2.13;;;9.50;61.70;;;;;;5009244;28;20629;-43
2022/01/20 04:15:40;;;;;;;1.97;1.87;;;9.50;62.10;;;;;;5012450;28;20242;-43
2022/01/20 04:18:07;;;;;;;2.80;2.53;;;9.60;62.40;;;;;;5019916;28;20962;-43
2022/01/20 04:20:33;;;;;;;2.70;2.50;;;9.50;62.10;;;;;;5011943;28;20448;-43
2022/01/20 04:22:59;;;;;;;2.50;2.30;;;9.40;62.10;;;;;;5003309;28;20437;-43
2022/01/20 04:25:25;;;;;;;2.50;2.30;;;9.50;62.10;;;;;;5008359;28;20660;-43
2022/01/20 04:27:50;;;;;;;2.33;2.13;;;9.50;62.00;;;;;;5010713;28;20228;-43
2022/01/20 04:30:16;;;;;;;2.40;2.20;;;9.50;62.30;;;;;;5012041;28;20197;-43
2022/01/20 04:32:42;;;;;;;2.30;2.20;;;9.30;61.90;;;;;;5010949;28;20209;-43
2022/01/20 04:35:07;;;;;;;2.63;2.40;;;9.20;62.40;;;;;;5007298;28;20201;-43
2022/01/20 04:37:33;;;;;;;3.00;2.40;;;9.20;62.40;;;;;;5011126;28;20251;-43
2022/01/20 04:40:01;;;;;;;3.00;2.67;;;9.20;62.50;;;;;;5011024;28;20197;-43
2022/01/20 04:42:29;;;;;;;3.50;2.47;;;9.20;62.70;;;;;;5008501;28;20582;-43
2022/01/20 04:45:00;;;;;;;2.87;2.20;;;9.20;62.40;;;;;;5008870;28;20539;-43
2022/01/20 04:58:04;;;;;;;3.40;2.90;;;9.30;62.00;;;;;;5010977;28;20471;-43
2022/01/20 05:00:30;;;;;;;3.73;2.70;;;9.30;61.90;;;;;;5009985;28;20444;-43
2022/01/20 05:02:56;;;;;;;3.17;2.67;;;9.30;62.20;;;;;;5010656;28;20233;-43
2022/01/20 05:05:22;;;;;;;4.40;3.43;;;9.20;62.10;;;;;;5010055;28;20956;-44
2022/01/20 05:07:48;;;;;;;3.30;3.00;;;9.20;62.30;;;;;;5002293;28;20229;-44
2022/01/20 05:10:14;;;;;;;2.80;2.60;;;9.20;62.30;;;;;;5007136;28;20433;-43
2022/01/20 05:13:40;;;;;;;3.30;2.90;;;8.80;63.00;;;;;;5005740;28;20449;-44
2022/01/20 05:15:34;;;;;;;3.33;3.03;;;8.50;64.20;;;;;;5006000;28;20579;-43
2022/01/20 05:18:00;;;;;;;3.50;3.07;;;8.50;64.60;;;;;;5011314;28;20485;-42
2022/01/20 05:20:26;;;;;;;4.10;2.60;;;8.50;64.90;;;;;;5010836;28;20646;-42
2022/01/20 05:22:52;;;;;;;2.80;2.60;;;8.50;65.50;;;;;;5009695;28;20460;-43
2022/01/20 05:25:17;;;;;;;3.30;2.67;;;8.50;65.40;;;;;;5005290;28;20245;-42
2022/01/20 05:27:43;;;;;;;2.77;2.47;;;8.70;64.80;;;;;;5009433;28;20661;-43
2022/01/20 05:30:09;;;;;;;3.17;2.57;;;8.90;64.40;;;;;;5010203;28;20756;-43
2022/01/20 05:32:35;;;;;;;4.67;2.93;;;9.00;64.00;;;;;;5005506;28;21061;-43
2022/01/20 05:35:00;;;;;;;2.40;2.20;;;9.00;64.20;;;;;;5010831;28;20527;-43
2022/01/20 05:37:26;;;;;;;2.93;2.73;;;9.00;64.00;;;;;;5003571;28;20220;-43
2022/01/20 05:39:51;;;;;;;3.90;3.43;;;9.10;63.60;;;;;;5008014;28;20638;-43
2022/01/20 05:42:17;;;;;;;3.10;2.80;;;9.10;63.60;;;;;;5009534;28;20206;-43
2022/01/20 05:44:44;;;;;;;3.37;3.07;;;8.90;63.50;;;;;;5004132;28;20190;-43
2022/01/20 05:47:11;;;;;;;3.90;2.93;;;8.80;63.90;;;;;;5010058;28;20233;-44
2022/01/20 05:49:37;;;;;;;2.63;2.43;;;8.90;64.20;;;;;;5010162;28;20531;-44
2022/01/20 05:52:03;;;;;;;4.50;2.70;;;8.90;63.90;;;;;;5009545;28;20571;-43
2022/01/20 05:54:29;;;;;;;3.03;2.57;;;9.00;64.60;;;;;;5004754;28;20943;-42
2022/01/20 05:56:55;;;;;;;2.50;2.30;;;9.00;63.70;;;;;;5004512;28;20433;-43
2022/01/20 05:59:21;;;;;;;2.93;2.47;;;9.10;63.20;;;;;;5009406;28;21123;-43
2022/01/20 06:01:53;;;;;;;2.97;2.60;;;9.10;63.40;;;;;;5007041;28;20794;-43
2022/01/20 06:04:19;;;;;;;2.80;2.57;;;9.00;63.50;;;;;;5008401;28;20189;-44
2022/01/20 06:06:45;;;;;;;4.57;2.23;;;8.80;63.90;;;;;;5009558;28;20484;-42
2022/01/20 06:09:11;;;;;;;2.77;2.50;;;8.80;64.10;;;;;;5009873;28;20301;-43
2022/01/20 06:11:37;;;;;;;2.37;2.17;;;8.80;64.30;;;;;;5009271;28;20444;-43
2022/01/20 06:14:04;;;;;;;4.47;3.03;;;8.90;64.10;;;;;;5004189;28;20424;-43
2022/01/20 06:16:30;;;;;;;2.80;2.00;;;8.80;63.90;;;;;;5008207;28;20476;-42
2022/01/20 06:18:56;;;;;;;2.90;2.60;;;8.70;64.40;;;;;;5009195;28;20479;-42
2022/01/20 06:21:22;;;;;;;2.70;2.50;;;8.70;64.60;;;;;;5008020;28;20441;-42
2022/01/20 06:23:48;;;;;;;3.60;2.23;;;8.90;64.40;;;;;;5007017;28;20196;-42
2022/01/20 06:26:14;;;;;;;4.50;2.63;;;8.90;63.70;;;;;;5008665;28;20515;-43
2022/01/20 06:28:42;;;;;;;7.57;2.50;;;8.90;63.40;;;;;;5003533;28;20471;-42
2022/01/20 06:31:09;;;;;;;3.80;2.90;;;8.90;63.20;;;;;;5006643;28;20233;-42
2022/01/20 06:33:34;;;;;;;7.43;3.23;;;9.00;63.00;;;;;;5003437;28;20449;-42
2022/01/20 06:36:00;;;;;;;3.27;2.97;;;9.20;62.40;;;;;;4998554;28;20558;-42
2022/01/20 06:38:26;;;;;;;6.20;3.67;;;9.30;61.90;;;;;;5009007;28;20512;-42
2022/01/20 06:40:52;;;;;;;5.23;3.77;;;9.40;61.90;;;;;;5008282;28;20461;-43
2022/01/20 06:43:18;;;;;;;8.00;3.90;;;9.40;61.60;;;;;;5008048;28;20487;-42
2022/01/20 06:45:44;;;;;;;10.43;3.73;;;9.50;61.70;;;;;;5007710;28;20654;-42
2022/01/20 06:48:10;;;;;;;4.37;3.57;;;9.60;61.50;;;;;;5007305;28;20194;-43
2022/01/20 06:50:35;;;;;;;3.80;3.30;;;9.60;61.10;;;;;;5009237;28;21010;-42
2022/01/20 06:53:01;;;;;;;4.00;3.23;;;9.60;60.70;;;;;;5007861;28;20202;-43
2022/01/20 06:55:27;;;;;;;4.80;3.30;;;9.50;60.60;;;;;;5008385;28;20208;-43
2022/01/20 06:57:52;;;;;;;8.10;3.50;;;9.40;61.00;;;;;;5008064;28;20221;-44
2022/01/20 07:00:21;;;;;;;4.40;3.53;;;9.50;60.90;;;;;;5008604;28;20187;-43
2022/01/20 07:02:48;;;;;;;6.20;5.43;;;9.60;60.40;;;;;;5007637;28;20249;-42
2022/01/20 07:05:16;;;;;;;3.50;3.20;;;9.60;60.20;;;;;;5009255;28;20440;-43
2022/01/20 07:07:42;;;;;;;7.37;3.97;;;9.50;60.10;;;;;;5008298;28;20524;-43
2022/01/20 07:10:10;;;;;;;5.00;3.33;;;9.60;60.20;;;;;;5006781;28;20441;-42
2022/01/20 07:12:36;;;;;;;7.33;6.20;;;9.60;59.80;;;;;;5007083;28;20499;-43
2022/01/20 07:15:03;;;;;;;13.73;10.20;;;9.50;59.70;;;;;;5007636;28;20472;-42
2022/01/20 07:17:28;;;;;;;17.70;13.50;;;9.60;59.80;;;;;;5008315;28;20225;-43
2022/01/20 07:19:54;;;;;;;10.63;8.30;;;9.60;59.80;;;;;;5008317;28;20527;-43
2022/01/20 07:22:20;;;;;;;5.87;5.27;;;9.70;59.40;;;;;;5007634;28;20187;-43
2022/01/20 07:24:47;;;;;;;30.90;19.67;;;9.80;59.50;;;;;;5008056;28;20198;-42
2022/01/20 07:27:13;;;;;;;10.30;6.40;;;9.80;59.00;;;;;;5006116;28;20305;-43
2022/01/20 07:29:39;;;;;;;6.03;4.43;;;9.90;59.10;;;;;;5008133;28;20445;-42
2022/01/20 07:32:06;;;;;;;32.53;22.07;;;10.20;58.20;;;;;;5009709;28;20451;-43
2022/01/20 07:34:33;;;;;;;9.50;7.40;;;10.30;57.30;;;;;;4993646;28;20198;-43
2022/01/20 07:36:59;;;;;;;9.67;7.97;;;10.30;56.70;;;;;;4993762;28;20424;-43
2022/01/20 07:39:25;;;;;;;6.90;5.37;;;10.00;56.80;;;;;;5010086;28;20429;-43
2022/01/20 07:41:51;;;;;;;18.70;14.30;;;9.80;58.10;;;;;;5009554;28;20449;-43
2022/01/20 07:44:17;;;;;;;10.33;8.30;;;9.90;58.30;;;;;;5010145;28;20301;-43
2022/01/20 07:46:44;;;;;;;5.80;4.30;;;9.80;58.70;;;;;;5009244;28;20233;-43
2022/01/20 07:49:09;;;;;;;5.30;3.60;;;9.90;58.80;;;;;;5010408;28;20512;-43
2022/01/20 07:51:35;;;;;;;4.47;3.50;;;9.80;59.00;;;;;;5009816;28;20524;-43
2022/01/20 07:54:00;;;;;;;6.13;3.50;;;9.80;59.00;;;;;;5013236;28;20217;-44
2022/01/20 07:56:26;;;;;;;3.67;2.53;;;9.90;59.00;;;;;;5011769;28;20561;-43
2022/01/20 07:58:52;;;;;;;7.90;3.47;;;9.80;58.80;;;;;;5013675;28;20248;-43
2022/01/20 08:01:17;;;;;;;7.20;4.33;;;9.80;59.10;;;;;;5012029;28;20520;-43
2022/01/20 08:03:43;;;;;;;5.73;3.80;;;9.80;59.20;;;;;;5013277;28;20194;-43
2022/01/20 08:06:08;;;;;;;3.40;3.10;;;9.70;59.10;;;;;;5012992;28;20225;-43
2022/01/20 08:08:34;;;;;;;4.50;2.80;;;9.80;59.10;;;;;;5013637;28;20649;-43
2022/01/20 08:11:00;;;;;;;5.77;3.03;;;9.80;59.10;;;;;;5012731;28;20624;-43
2022/01/20 08:13:25;;;;;;;6.17;2.97;;;9.90;58.90;;;;;;5009169;28;20205;-43
2022/01/20 08:15:51;;;;;;;4.60;3.60;;;10.00;57.20;;;;;;5010101;28;20260;-43
2022/01/20 08:18:16;;;;;;;4.20;3.10;;;10.10;56.80;;;;;;5012778;28;20273;-43
2022/01/20 08:20:42;;;;;;;3.93;2.70;;;10.10;56.80;;;;;;4997241;28;20195;-43
2022/01/20 08:23:08;;;;;;;7.30;3.67;;;10.20;56.70;;;;;;4992244;28;20195;-43
2022/01/20 08:25:34;;;;;;;6.57;4.30;;;10.10;56.70;;;;;;5005724;28;20256;-43
2022/01/20 08:28:00;;;;;;;4.90;2.93;;;10.20;56.80;;;;;;5012202;28;20261;-43
2022/01/20 08:30:26;;;;;;;5.00;3.10;;;10.20;56.70;;;;;;5012773;28;20464;-43
2022/01/20 08:32:52;;;;;;;5.30;3.07;;;10.20;56.90;;;;;;5012268;28;20459;-43
2022/01/20 08:35:20;;;;;;;6.67;3.80;;;10.30;56.90;;;;;;5012898;28;20573;-43
2022/01/20 08:37:45;;;;;;;5.07;2.83;;;10.10;56.60;;;;;;5011778;28;20555;-43
2022/01/20 08:40:14;;;;;;;5.10;3.20;;;10.00;56.70;;;;;;5012370;28;20437;-43
2022/01/20 08:42:46;;;;;;;6.80;2.53;;;10.00;56.90;;;;;;5011890;28;20193;-43
2022/01/20 08:45:14;;;;;;;5.97;2.70;;;10.00;57.10;;;;;;5012814;28;20495;-42
2022/01/20 08:47:42;;;;;;;4.60;2.47;;;9.90;57.60;;;;;;5011597;28;20488;-43
2022/01/20 08:50:09;;;;;;;8.07;3.20;;;9.80;57.80;;;;;;5012458;28;20441;-42
2022/01/20 08:52:35;;;;;;;7.87;2.90;;;9.80;57.90;;;;;;5010093;28;20943;-43
2022/01/20 08:55:02;;;;;;;7.77;4.40;;;9.60;57.90;;;;;;5012408;28;20424;-43
2022/01/20 08:57:28;;;;;;;6.60;3.30;;;9.70;58.10;;;;;;5011927;28;20917;-43
2022/01/20 08:59:55;;;;;;;8.20;3.00;;;9.60;58.30;;;;;;5010009;28;20448;-43
2022/01/20 09:02:21;;;;;;;6.87;2.73;;;9.60;58.40;;;;;;5009299;28;20516;-43
2022/01/20 09:07:55;;;;;;;5.80;2.53;;;9.40;58.40;;;;;;5048292;23;20874;-45
2022/01/20 09:10:21;;;;;;;8.00;4.80;;;9.40;58.70;;;;;;5009393;28;20444;-45
2022/01/20 09:15:28;;;;;;;8.50;3.97;;;9.40;58.60;;;;;;5011688;28;20441;-47
2022/01/20 09:17:57;;;;;;;8.00;3.30;;;9.50;58.60;;;;;;5013688;28;20447;-45
2022/01/20 09:20:24;;;;;;;7.70;3.40;;;9.40;58.10;;;;;;5002102;28;20453;-46
2022/01/20 09:22:51;;;;;;;7.50;2.73;;;9.30;58.40;;;;;;5012264;28;20437;-46
2022/01/20 09:25:17;;;;;;;11.40;3.33;;;9.10;58.70;;;;;;5011452;28;20453;-45
2022/01/20 09:27:43;;;;;;;14.63;3.17;;;8.90;59.30;;;;;;5019963;28;20837;-46
2022/01/20 09:30:09;;;;;;;8.53;2.80;;;8.90;59.30;;;;;;5006741;28;20570;-45
2022/01/20 09:32:38;;;;;;;6.40;2.50;;;8.90;59.40;;;;;;5008473;28;20205;-45
2022/01/20 09:35:05;;;;;;;3.03;2.77;;;9.00;59.10;;;;;;5009508;28;20940;-45
2022/01/20 09:37:32;;;;;;;4.90;2.93;;;9.10;59.20;;;;;;5009740;28;20519;-45
2022/01/20 09:39:57;;;;;;;11.03;3.50;;;9.10;59.20;;;;;;5011597;28;21007;-44
2022/01/20 09:42:24;;;;;;;8.07;3.27;;;9.00;58.80;;;;;;5017565;28;20519;-45
2022/01/20 09:44:52;;;;;;;5.50;3.03;;;9.00;59.20;;;;;;5022759;28;20653;-44
2022/01/20 09:47:19;;;;;;;8.07;3.30;;;8.90;59.50;;;;;;5010790;28;20484;-48
2022/01/20 09:49:45;;;;;;;8.47;3.23;;;8.90;59.50;;;;;;5019010;28;20482;-50
2022/01/20 09:52:10;;;;;;;7.73;2.90;;;8.80;59.50;;;;;;5009931;28;20452;-47
2022/01/20 09:54:37;;;;;;;7.70;4.20;;;8.70;60.10;;;;;;5012341;28;20440;-49
2022/01/20 09:57:04;;;;;;;6.70;3.77;;;8.70;60.30;;;;;;5017219;28;20204;-50
2022/01/20 09:59:31;;;;;;;10.07;3.50;;;8.80;60.10;;;;;;5014144;28;20510;-46
2022/01/20 10:01:58;;;;;;;5.53;2.60;;;8.80;60.00;;;;;;5017404;28;20947;-48
2022/01/20 10:04:37;;;;;;;7.73;3.30;;;8.80;60.30;;;;;;5017627;28;20445;-46
2022/01/20 10:07:09;;;;;;;13.03;3.70;;;8.90;60.30;;;;;;5010890;28;20492;-48
2022/01/20 10:09:37;;;;;;;5.13;3.20;;;8.90;60.10;;;;;;5008102;28;20483;-47
2022/01/20 10:12:04;;;;;;;6.90;3.03;;;8.90;60.80;;;;;;5010587;28;20843;-46
2022/01/20 10:14:50;;;;;;;9.70;3.47;;;8.80;60.60;;;;;;5012708;28;20440;-45
2022/01/20 10:17:18;;;;;;;9.47;2.97;;;8.50;60.90;;;;;;4998946;28;20947;-49
2022/01/20 10:19:45;;;;;;;7.90;3.70;;;8.50;60.50;;;;;;5010346;28;20449;-49
2022/01/20 10:22:14;;;;;;;10.10;3.97;;;8.60;61.40;;;;;;5010284;28;20495;-49
2022/01/20 10:24:40;;;;;;;10.73;3.53;;;8.80;61.40;;;;;;4998969;28;20997;-47
2022/01/20 10:27:11;;;;;;;15.07;3.20;;;8.60;60.20;;;;;;5014695;28;20480;-47
2022/01/20 10:29:36;;;;;;;8.10;3.20;;;8.70;60.80;;;;;;5003697;28;20483;-46
2022/01/20 10:32:02;;;;;;;4.77;2.90;;;8.60;60.40;;;;;;5010183;28;20924;-48
2022/01/20 10:34:35;;;;;;;6.93;3.37;;;8.50;60.30;;;;;;5013138;28;20567;-49
2022/01/20 10:37:01;;;;;;;6.87;2.97;;;8.40;60.20;;;;;;5011032;28;20198;-46
2022/01/20 10:39:35;;;;;;;8.40;2.80;;;8.50;60.90;;;;;;5006378;28;20937;-45
2022/01/20 10:42:20;;;;;;;7.13;5.17;;;8.60;60.60;;;;;;5004625;28;21006;-46
2022/01/20 10:44:54;;;;;;;6.83;3.80;;;8.70;60.40;;;;;;5010177;28;20957;-46
2022/01/20 10:47:31;;;;;;;7.50;3.13;;;8.80;60.20;;;;;;5000255;28;20485;-49
2022/01/20 10:50:08;;;;;;;6.70;3.90;;;8.80;60.00;;;;;;5011844;28;20483;-46
2022/01/20 10:52:36;;;;;;;6.70;3.13;;;8.60;60.10;;;;;;5008698;28;20440;-45
2022/01/20 10:55:01;;;;;;;6.87;3.33;;;8.60;60.00;;;;;;5010867;28;20475;-50
2022/01/20 10:57:32;;;;;;;6.47;3.50;;;8.60;60.40;;;;;;5014340;28;20464;-46
2022/01/20 11:00:02;;;;;;;6.37;3.30;;;8.70;60.50;;;;;;5000277;28;20190;-50
2022/01/20 11:02:29;;;;;;;7.27;3.70;;;8.80;60.10;;;;;;5006200;28;20465;-49
2022/01/20 11:04:59;;;;;;;8.00;3.60;;;8.70;59.60;;;;;;5012245;28;20436;-49
2022/01/20 11:07:25;;;;;;;10.43;4.60;;;8.80;60.20;;;;;;5011541;28;20557;-50
2022/01/20 11:10:02;;;;;;;6.70;3.00;;;8.60;59.90;;;;;;5005481;28;20445;-50
2022/01/20 11:12:28;;;;;;;6.07;3.53;;;8.70;59.80;;;;;;5000375;28;20441;-48
2022/01/20 11:14:56;;;;;;;6.60;3.57;;;8.70;59.70;;;;;;5007696;28;20439;-50
2022/01/20 11:17:24;;;;;;;10.97;3.43;;;8.90;59.50;;;;;;5009556;28;20747;-49
2022/01/20 11:19:51;;;;;;;5.53;3.10;;;9.00;59.50;;;;;;5010425;28;20433;-51
2022/01/20 11:22:18;;;;;;;7.97;3.30;;;9.00;59.20;;;;;;5009153;28;20439;-48
2022/01/20 11:24:44;;;;;;;8.80;3.53;;;8.90;58.90;;;;;;5010702;28;20437;-46
2022/01/20 11:27:12;;;;;;;6.53;3.53;;;8.80;59.10;;;;;;5008653;28;21243;-49
2022/01/20 11:29:42;;;;;;;4.40;3.30;;;8.90;59.20;;;;;;5012950;28;20194;-49
2022/01/20 11:32:22;;;;;;;6.37;3.03;;;8.70;59.30;;;;;;5004952;28;20450;-47
2022/01/20 11:35:16;;;;;;;4.80;3.00;;;8.70;59.60;;;;;;5014617;28;20499;-46
2022/01/20 11:37:54;;;;;;;5.47;3.50;;;8.50;59.80;;;;;;5010338;28;20967;-47
2022/01/20 11:40:21;;;;;;;4.40;2.93;;;8.60;60.00;;;;;;5006046;28;20466;-46
2022/01/20 11:42:59;;;;;;;10.00;4.30;;;8.70;60.30;;;;;;5010600;28;20482;-49
2022/01/20 11:45:51;;;;;;;10.87;4.50;;;9.00;60.10;;;;;;5012562;28;21018;-47
2022/01/20 11:48:23;;;;;;;8.53;3.27;;;9.10;59.30;;;;;;5006298;28;20985;-45
2022/01/20 11:51:04;;;;;;;5.77;2.90;;;9.30;59.40;;;;;;5015152;28;20459;-48
2022/01/20 11:53:30;;;;;;;5.13;3.30;;;9.10;58.70;;;;;;5017556;28;20440;-46
2022/01/20 11:55:56;;;;;;;6.80;3.87;;;9.20;59.10;;;;;;5014257;28;20487;-46
2022/01/20 11:58:25;;;;;;;6.47;3.13;;;9.40;58.70;;;;;;5016818;28;20208;-46
2022/01/20 12:01:00;;;;;;;8.53;3.70;;;9.60;58.20;;;;;;5005990;28;20803;-45
2022/01/20 12:03:26;;;;;;;8.20;2.93;;;9.70;57.70;;;;;;5016879;28;20452;-48
2022/01/20 12:06:08;;;;;;;5.03;3.00;;;9.50;57.80;;;;;;5023883;28;20551;-46
2022/01/20 12:08:34;;;;;;;13.10;3.30;;;9.50;57.70;;;;;;5022268;28;20543;-45
2022/01/20 12:11:01;;;;;;;5.27;3.00;;;9.10;57.10;;;;;;5012035;28;20540;-47
2022/01/20 12:13:28;;;;;;;6.40;2.40;;;8.90;57.40;;;;;;5011650;28;20928;-45
2022/01/20 12:16:00;;;;;;;5.70;2.40;;;8.70;57.40;;;;;;5008545;28;20432;-47
2022/01/20 12:18:26;;;;;;;4.17;1.73;;;8.40;57.90;;;;;;5018316;28;20968;-47
2022/01/20 12:20:52;;;;;;;3.20;1.40;;;8.50;59.90;;;;;;5021450;28;20440;-45
2022/01/20 12:23:19;;;;;;;3.37;1.40;;;8.00;61.30;;;;;;5012753;28;20947;-48
2022/01/20 12:25:45;;;;;;;2.37;1.23;;;7.80;63.00;;;;;;5015346;28;20198;-47
2022/01/20 12:28:16;;;;;;;5.53;1.30;;;7.60;63.50;;;;;;5015896;28;20484;-47
2022/01/20 12:30:48;;;;;;;4.00;1.00;;;7.60;63.60;;;;;;5015567;28;20440;-47
2022/01/20 12:33:16;;;;;;;5.80;1.50;;;7.70;63.40;;;;;;5005434;28;20439;-47
2022/01/20 12:39:03;;;;;;;2.67;1.30;;;7.80;60.70;;;;;;5106233;22;20974;-44
2022/01/20 12:41:29;;;;;;;4.00;1.80;;;7.90;60.10;;;;;;4973111;28;20466;-44
2022/01/20 12:44:06;;;;;;;5.67;1.63;;;8.10;60.40;;;;;;4972759;28;20195;-43
2022/01/20 12:46:39;;;;;;;5.60;1.73;;;8.00;60.40;;;;;;4970722;28;20580;-43
2022/01/20 12:49:09;;;;;;;5.70;2.07;;;7.80;61.20;;;;;;4971393;28;20458;-44
2022/01/20 12:51:39;;;;;;;5.80;1.97;;;7.30;61.80;;;;;;4974124;28;20464;-44
2022/01/20 12:54:11;;;;;;;5.97;1.97;;;7.60;62.50;;;;;;4972850;28;20450;-43
2022/01/20 12:56:41;;;;;;;3.93;1.70;;;7.80;61.90;;;;;;4971527;28;20450;-44
2022/01/20 12:59:07;;;;;;;6.73;2.17;;;7.90;60.90;;;;;;4971211;28;20794;-44
2022/01/20 13:01:43;;;;;;;2.30;1.70;;;7.80;60.60;;;;;;4971537;28;20435;-43
2022/01/20 13:04:14;;;;;;;10.20;2.40;;;7.90;61.20;;;;;;4971154;28;20442;-44
2022/01/20 13:06:45;;;;;;;8.60;2.50;;;8.10;60.80;;;;;;4970145;28;20500;-44
2022/01/20 13:09:12;;;;;;;6.33;2.13;;;8.20;60.50;;;;;;4968108;28;20454;-44
2022/01/20 13:11:53;;;;;;;4.50;2.13;;;8.30;60.20;;;;;;4968131;28;20449;-43
2022/01/20 13:14:19;;;;;;;3.33;1.80;;;8.40;60.30;;;;;;4982317;28;20830;-43
2022/01/20 13:16:54;;;;;;;5.23;2.30;;;8.40;60.60;;;;;;4972055;28;20472;-43
2022/01/20 13:19:31;;;;;;;9.87;3.13;;;8.40;60.60;;;;;;4970799;28;20206;-43
2022/01/20 13:21:57;;;;;;;10.90;2.20;;;8.30;60.70;;;;;;4969872;28;20438;-43
2022/01/20 13:24:28;;;;;;;7.27;3.27;;;8.30;60.60;;;;;;4970780;28;20445;-43
2022/01/20 13:26:56;;;;;;;6.73;2.17;;;8.10;61.00;;;;;;4970918;28;20492;-43
2022/01/20 13:29:23;;;;;;;3.20;1.90;;;8.00;61.50;;;;;;4972778;28;20445;-43
2022/01/20 13:31:57;;;;;;;6.90;2.20;;;8.00;62.00;;;;;;4970979;28;20543;-43
2022/01/20 13:34:23;;;;;;;3.53;1.80;;;7.90;62.20;;;;;;4970772;28;20439;-43
2022/01/20 13:36:53;;;;;;;5.03;1.87;;;8.10;62.10;;;;;;4967064;28;20453;-43
2022/01/20 13:39:33;;;;;;;4.83;2.90;;;8.20;61.50;;;;;;4967893;28;20600;-43
2022/01/20 13:45:12;;;;;;;4.53;2.30;;;8.10;61.60;;;;;;4974335;28;20477;-43
2022/01/20 13:47:58;;;;;;;7.93;2.63;;;8.10;62.80;;;;;;4972949;28;20591;-43
2022/01/20 13:50:31;;;;;;;10.77;2.97;;;8.10;62.00;;;;;;4970821;28;20979;-43
2022/01/20 13:53:00;;;;;;;5.03;2.63;;;8.10;62.00;;;;;;4963583;28;20505;-43
2022/01/20 13:55:32;;;;;;;3.07;2.57;;;7.90;62.20;;;;;;4972898;28;20488;-43
2022/01/20 13:58:00;;;;;;;4.87;2.20;;;7.80;63.30;;;;;;4966666;28;20457;-43
2022/01/20 14:00:29;;;;;;;4.13;2.17;;;7.80;64.30;;;;;;4969923;28;20439;-43
2022/01/20 14:02:55;;;;;;;4.43;2.37;;;7.70;63.70;;;;;;4969192;28;20969;-43
2022/01/20 14:05:30;;;;;;;3.87;2.27;;;7.80;63.80;;;;;;4971494;28;20458;-43
2022/01/20 14:07:57;;;;;;;6.17;2.57;;;7.80;63.80;;;;;;4957881;28;20235;-43
2022/01/20 14:10:22;;;;;;;9.87;2.73;;;7.80;63.70;;;;;;4968943;28;20430;-43
2022/01/20 14:12:48;;;;;;;5.20;2.37;;;7.70;63.10;;;;;;4968094;28;20942;-43
2022/01/20 14:15:15;;;;;;;5.53;2.37;;;7.80;63.80;;;;;;4971599;28;20199;-43